sensor_id;sensor_type;location;lat;lon;timestamp;P1;durP1;ratioP1;P2;durP2;ratioP2
71106;SDS011;58763;47.982;11.516;2023-05-10T00:00:10;2.28;;;0.93;;
71106;SDS011;58763;47.982;11.516;2023-05-10T00:02:36;2.50;;;0.73;;
71106;SDS011;58763;47.982;11.516;2023-05-10T00:05:02;1.98;;;0.80;;
71106;SDS011;58763;47.982;11.516;2023-05-10T00:07:27;4.05;;;0.88;;
71106;SDS011;58763;47.982;11.516;2023-05-10T00:09:53;1.63;;;0.88;;
71106;SDS011;58763;47.982;11.516;2023-05-10T00:12:18;1.77;;;0.90;;
71106;SDS011;58763;47.982;11.516;2023-05-10T00:14:43;4.28;;;0.90;;
71106;SDS011;58763;47.982;11.516;2023-05-10T00:17:10;2.35;;;0.73;;
71106;SDS011;58763;47.982;11.516;2023-05-10T00:19:35;1.63;;;0.80;;
71106;SDS011;58763;47.982;11.516;2023-05-10T00:22:01;3.35;;;0.90;;
71106;SDS011;58763;47.982;11.516;2023-05-10T00:24:26;2.25;;;0.80;;
71106;SDS011;58763;47.982;11.516;2023-05-10T00:26:52;1.67;;;0.70;;
71106;SDS011;58763;47.982;11.516;2023-05-10T00:29:17;2.60;;;0.80;;
71106;SDS011;58763;47.982;11.516;2023-05-10T00:31:43;3.20;;;0.90;;
71106;SDS011;58763;47.982;11.516;2023-05-10T00:34:08;2.20;;;0.80;;
71106;SDS011;58763;47.982;11.516;2023-05-10T00:36:33;2.47;;;0.98;;
71106;SDS011;58763;47.982;11.516;2023-05-10T00:38:59;1.88;;;0.90;;
71106;SDS011;58763;47.982;11.516;2023-05-10T00:41:24;2.00;;;0.80;;
71106;SDS011;58763;47.982;11.516;2023-05-10T00:43:50;1.67;;;0.80;;
71106;SDS011;58763;47.982;11.516;2023-05-10T00:46:16;1.48;;;0.70;;
71106;SDS011;58763;47.982;11.516;2023-05-10T00:48:42;2.20;;;0.90;;
71106;SDS011;58763;47.982;11.516;2023-05-10T00:51:08;2.30;;;0.90;;
71106;SDS011;58763;47.982;11.516;2023-05-10T00:53:34;2.92;;;0.68;;
71106;SDS011;58763;47.982;11.516;2023-05-10T00:56:00;1.75;;;0.80;;
71106;SDS011;58763;47.982;11.516;2023-05-10T00:58:26;1.33;;;0.57;;
71106;SDS011;58763;47.982;11.516;2023-05-10T01:00:54;1.02;;;0.50;;
71106;SDS011;58763;47.982;11.516;2023-05-10T01:03:22;1.67;;;0.52;;
71106;SDS011;58763;47.982;11.516;2023-05-10T01:05:47;1.52;;;0.68;;
71106;SDS011;58763;47.982;11.516;2023-05-10T01:08:12;3.40;;;0.70;;
71106;SDS011;58763;47.982;11.516;2023-05-10T01:10:39;1.60;;;0.60;;
71106;SDS011;58763;47.982;11.516;2023-05-10T01:13:05;0.93;;;0.50;;
71106;SDS011;58763;47.982;11.516;2023-05-10T01:15:31;3.05;;;0.70;;
71106;SDS011;58763;47.982;11.516;2023-05-10T01:17:56;1.98;;;0.80;;
71106;SDS011;58763;47.982;11.516;2023-05-10T01:20:22;2.10;;;0.70;;
71106;SDS011;58763;47.982;11.516;2023-05-10T01:31:21;1.70;;;0.60;;
71106;SDS011;58763;47.982;11.516;2023-05-10T01:34:07;2.58;;;0.50;;
71106;SDS011;58763;47.982;11.516;2023-05-10T01:36:47;2.37;;;0.70;;
71106;SDS011;58763;47.982;11.516;2023-05-10T01:42:03;1.67;;;0.73;;
71106;SDS011;58763;47.982;11.516;2023-05-10T01:44:38;1.65;;;0.80;;
71106;SDS011;58763;47.982;11.516;2023-05-10T01:47:11;1.30;;;0.63;;
71106;SDS011;58763;47.982;11.516;2023-05-10T01:49:41;1.83;;;0.70;;
71106;SDS011;58763;47.982;11.516;2023-05-10T01:52:13;1.58;;;0.50;;
71106;SDS011;58763;47.982;11.516;2023-05-10T01:54:43;1.58;;;0.70;;
71106;SDS011;58763;47.982;11.516;2023-05-10T01:57:14;2.72;;;0.70;;
71106;SDS011;58763;47.982;11.516;2023-05-10T01:59:43;1.38;;;0.60;;
71106;SDS011;58763;47.982;11.516;2023-05-10T02:02:11;2.17;;;0.60;;
71106;SDS011;58763;47.982;11.516;2023-05-10T02:04:38;1.17;;;0.60;;
71106;SDS011;58763;47.982;11.516;2023-05-10T02:07:05;1.15;;;0.52;;
71106;SDS011;58763;47.982;11.516;2023-05-10T02:09:32;2.50;;;0.60;;
71106;SDS011;58763;47.982;11.516;2023-05-10T02:11:59;2.35;;;0.60;;
71106;SDS011;58763;47.982;11.516;2023-05-10T02:14:27;1.83;;;0.60;;
71106;SDS011;58763;47.982;11.516;2023-05-10T02:16:55;1.80;;;0.60;;
71106;SDS011;58763;47.982;11.516;2023-05-10T02:19:23;1.20;;;0.50;;
71106;SDS011;58763;47.982;11.516;2023-05-10T02:21:49;2.55;;;0.60;;
71106;SDS011;58763;47.982;11.516;2023-05-10T02:24:16;1.15;;;0.50;;
71106;SDS011;58763;47.982;11.516;2023-05-10T02:26:44;1.95;;;0.40;;
71106;SDS011;58763;47.982;11.516;2023-05-10T02:29:12;1.48;;;0.50;;
71106;SDS011;58763;47.982;11.516;2023-05-10T02:31:39;3.10;;;0.63;;
71106;SDS011;58763;47.982;11.516;2023-05-10T02:34:08;2.88;;;0.50;;
71106;SDS011;58763;47.982;11.516;2023-05-10T02:36:36;1.10;;;0.40;;
71106;SDS011;58763;47.982;11.516;2023-05-10T02:39:03;0.95;;;0.40;;
71106;SDS011;58763;47.982;11.516;2023-05-10T02:41:30;1.88;;;0.52;;
71106;SDS011;58763;47.982;11.516;2023-05-10T02:43:59;0.80;;;0.40;;
71106;SDS011;58763;47.982;11.516;2023-05-10T02:46:26;1.25;;;0.57;;
71106;SDS011;58763;47.982;11.516;2023-05-10T02:48:52;1.63;;;0.57;;
71106;SDS011;58763;47.982;11.516;2023-05-10T02:51:18;1.13;;;0.50;;
71106;SDS011;58763;47.982;11.516;2023-05-10T02:53:45;1.23;;;0.50;;
71106;SDS011;58763;47.982;11.516;2023-05-10T02:56:13;2.67;;;1.58;;
71106;SDS011;58763;47.982;11.516;2023-05-10T02:58:44;3.38;;;0.50;;
71106;SDS011;58763;47.982;11.516;2023-05-10T03:01:10;1.17;;;0.40;;
71106;SDS011;58763;47.982;11.516;2023-05-10T03:03:35;2.63;;;0.60;;
71106;SDS011;58763;47.982;11.516;2023-05-10T03:06:00;1.10;;;0.50;;
71106;SDS011;58763;47.982;11.516;2023-05-10T03:08:26;1.20;;;0.40;;
71106;SDS011;58763;47.982;11.516;2023-05-10T03:11:15;1.48;;;0.55;;
71106;SDS011;58763;47.982;11.516;2023-05-10T03:13:54;2.38;;;0.50;;
71106;SDS011;58763;47.982;11.516;2023-05-10T03:16:32;1.88;;;0.50;;
71106;SDS011;58763;47.982;11.516;2023-05-10T03:19:14;1.10;;;0.43;;
71106;SDS011;58763;47.982;11.516;2023-05-10T03:21:47;1.63;;;0.50;;
71106;SDS011;58763;47.982;11.516;2023-05-10T03:24:16;0.80;;;0.43;;
71106;SDS011;58763;47.982;11.516;2023-05-10T03:26:43;0.60;;;0.40;;
71106;SDS011;58763;47.982;11.516;2023-05-10T03:29:11;1.08;;;0.35;;
71106;SDS011;58763;47.982;11.516;2023-05-10T03:31:39;0.65;;;0.35;;
71106;SDS011;58763;47.982;11.516;2023-05-10T03:34:05;1.33;;;0.50;;
71106;SDS011;58763;47.982;11.516;2023-05-10T03:36:31;1.65;;;0.43;;
71106;SDS011;58763;47.982;11.516;2023-05-10T03:38:56;2.10;;;0.60;;
71106;SDS011;58763;47.982;11.516;2023-05-10T03:41:22;1.92;;;0.30;;
71106;SDS011;58763;47.982;11.516;2023-05-10T03:43:47;0.95;;;0.40;;
71106;SDS011;58763;47.982;11.516;2023-05-10T03:46:13;0.82;;;0.40;;
71106;SDS011;58763;47.982;11.516;2023-05-10T03:48:38;1.20;;;0.45;;
71106;SDS011;58763;47.982;11.516;2023-05-10T03:51:04;0.90;;;0.40;;
71106;SDS011;58763;47.982;11.516;2023-05-10T03:53:29;1.40;;;0.40;;
71106;SDS011;58763;47.982;11.516;2023-05-10T03:55:55;1.20;;;0.50;;
71106;SDS011;58763;47.982;11.516;2023-05-10T03:58:20;1.92;;;0.50;;
71106;SDS011;58763;47.982;11.516;2023-05-10T04:00:46;2.30;;;0.50;;
71106;SDS011;58763;47.982;11.516;2023-05-10T04:03:12;0.88;;;0.40;;
71106;SDS011;58763;47.982;11.516;2023-05-10T04:05:38;1.30;;;0.40;;
71106;SDS011;58763;47.982;11.516;2023-05-10T04:08:03;1.00;;;0.50;;
71106;SDS011;58763;47.982;11.516;2023-05-10T04:10:29;2.65;;;0.50;;
71106;SDS011;58763;47.982;11.516;2023-05-10T04:12:54;1.13;;;0.40;;
71106;SDS011;58763;47.982;11.516;2023-05-10T04:15:20;1.42;;;0.40;;
71106;SDS011;58763;47.982;11.516;2023-05-10T04:17:46;1.75;;;0.50;;
71106;SDS011;58763;47.982;11.516;2023-05-10T04:20:12;0.70;;;0.40;;
71106;SDS011;58763;47.982;11.516;2023-05-10T04:22:37;0.70;;;0.32;;
71106;SDS011;58763;47.982;11.516;2023-05-10T04:25:03;1.45;;;0.40;;
71106;SDS011;58763;47.982;11.516;2023-05-10T04:27:29;1.15;;;0.30;;
71106;SDS011;58763;47.982;11.516;2023-05-10T04:29:56;1.23;;;0.45;;
71106;SDS011;58763;47.982;11.516;2023-05-10T04:32:22;1.55;;;0.38;;
71106;SDS011;58763;47.982;11.516;2023-05-10T04:34:47;0.60;;;0.30;;
71106;SDS011;58763;47.982;11.516;2023-05-10T04:37:13;0.80;;;0.38;;
71106;SDS011;58763;47.982;11.516;2023-05-10T04:39:38;0.32;;;0.20;;
71106;SDS011;58763;47.982;11.516;2023-05-10T04:42:04;0.90;;;0.40;;
71106;SDS011;58763;47.982;11.516;2023-05-10T04:44:31;1.50;;;0.30;;
71106;SDS011;58763;47.982;11.516;2023-05-10T04:47:00;0.98;;;0.47;;
71106;SDS011;58763;47.982;11.516;2023-05-10T04:49:27;0.60;;;0.30;;
71106;SDS011;58763;47.982;11.516;2023-05-10T04:51:53;1.08;;;0.40;;
71106;SDS011;58763;47.982;11.516;2023-05-10T04:54:19;0.55;;;0.30;;
71106;SDS011;58763;47.982;11.516;2023-05-10T04:56:44;0.38;;;0.20;;
71106;SDS011;58763;47.982;11.516;2023-05-10T04:59:10;1.92;;;0.30;;
71106;SDS011;58763;47.982;11.516;2023-05-10T05:01:35;0.75;;;0.30;;
71106;SDS011;58763;47.982;11.516;2023-05-10T05:04:01;1.00;;;0.35;;
71106;SDS011;58763;47.982;11.516;2023-05-10T05:06:27;0.65;;;0.30;;
71106;SDS011;58763;47.982;11.516;2023-05-10T05:08:52;0.73;;;0.22;;
71106;SDS011;58763;47.982;11.516;2023-05-10T05:11:18;0.65;;;0.30;;
71106;SDS011;58763;47.982;11.516;2023-05-10T05:13:43;0.50;;;0.20;;
71106;SDS011;58763;47.982;11.516;2023-05-10T05:16:09;0.50;;;0.30;;
71106;SDS011;58763;47.982;11.516;2023-05-10T05:18:35;0.45;;;0.22;;
71106;SDS011;58763;47.982;11.516;2023-05-10T05:21:01;0.40;;;0.30;;
71106;SDS011;58763;47.982;11.516;2023-05-10T05:23:26;0.90;;;0.20;;
71106;SDS011;58763;47.982;11.516;2023-05-10T05:25:52;0.60;;;0.30;;
71106;SDS011;58763;47.982;11.516;2023-05-10T05:28:21;2.22;;;0.30;;
71106;SDS011;58763;47.982;11.516;2023-05-10T05:30:46;1.40;;;0.40;;
71106;SDS011;58763;47.982;11.516;2023-05-10T05:33:15;1.05;;;0.40;;
71106;SDS011;58763;47.982;11.516;2023-05-10T05:35:40;0.95;;;0.35;;
71106;SDS011;58763;47.982;11.516;2023-05-10T05:38:08;0.55;;;0.38;;
71106;SDS011;58763;47.982;11.516;2023-05-10T05:40:33;1.00;;;0.50;;
71106;SDS011;58763;47.982;11.516;2023-05-10T05:42:59;1.17;;;0.50;;
71106;SDS011;58763;47.982;11.516;2023-05-10T05:45:24;1.60;;;0.60;;
71106;SDS011;58763;47.982;11.516;2023-05-10T05:47:50;1.17;;;0.60;;
71106;SDS011;58763;47.982;11.516;2023-05-10T05:50:15;1.65;;;0.45;;
71106;SDS011;58763;47.982;11.516;2023-05-10T05:52:41;1.52;;;0.60;;
71106;SDS011;58763;47.982;11.516;2023-05-10T05:55:06;2.80;;;0.60;;
71106;SDS011;58763;47.982;11.516;2023-05-10T05:57:32;1.98;;;0.60;;
71106;SDS011;58763;47.982;11.516;2023-05-10T05:59:57;1.35;;;0.60;;
71106;SDS011;58763;47.982;11.516;2023-05-10T06:02:23;1.48;;;0.70;;
71106;SDS011;58763;47.982;11.516;2023-05-10T06:04:48;1.67;;;0.80;;
71106;SDS011;58763;47.982;11.516;2023-05-10T06:07:14;2.15;;;0.70;;
71106;SDS011;58763;47.982;11.516;2023-05-10T06:09:39;1.45;;;0.52;;
71106;SDS011;58763;47.982;11.516;2023-05-10T06:12:05;1.58;;;0.65;;
71106;SDS011;58763;47.982;11.516;2023-05-10T06:14:30;1.73;;;0.70;;
71106;SDS011;58763;47.982;11.516;2023-05-10T06:16:56;1.25;;;0.70;;
71106;SDS011;58763;47.982;11.516;2023-05-10T06:19:21;2.80;;;0.80;;
71106;SDS011;58763;47.982;11.516;2023-05-10T06:21:47;2.45;;;0.80;;
71106;SDS011;58763;47.982;11.516;2023-05-10T06:24:12;1.70;;;0.80;;
71106;SDS011;58763;47.982;11.516;2023-05-10T06:26:37;1.25;;;0.63;;
71106;SDS011;58763;47.982;11.516;2023-05-10T06:29:03;2.03;;;1.00;;
71106;SDS011;58763;47.982;11.516;2023-05-10T06:31:28;1.63;;;0.65;;
71106;SDS011;58763;47.982;11.516;2023-05-10T06:33:54;1.42;;;0.60;;
71106;SDS011;58763;47.982;11.516;2023-05-10T06:36:20;1.73;;;0.73;;
71106;SDS011;58763;47.982;11.516;2023-05-10T06:38:46;2.30;;;0.80;;
71106;SDS011;58763;47.982;11.516;2023-05-10T06:41:12;1.60;;;0.55;;
71106;SDS011;58763;47.982;11.516;2023-05-10T06:43:37;2.95;;;0.60;;
71106;SDS011;58763;47.982;11.516;2023-05-10T06:46:06;1.85;;;0.80;;
71106;SDS011;58763;47.982;11.516;2023-05-10T06:48:32;1.60;;;0.65;;
71106;SDS011;58763;47.982;11.516;2023-05-10T06:50:57;1.73;;;0.80;;
71106;SDS011;58763;47.982;11.516;2023-05-10T06:53:23;2.13;;;0.70;;
71106;SDS011;58763;47.982;11.516;2023-05-10T06:55:49;2.35;;;0.90;;
71106;SDS011;58763;47.982;11.516;2023-05-10T06:58:15;1.88;;;0.77;;
71106;SDS011;58763;47.982;11.516;2023-05-10T07:00:41;2.58;;;0.90;;
71106;SDS011;58763;47.982;11.516;2023-05-10T07:03:09;2.28;;;0.90;;
71106;SDS011;58763;47.982;11.516;2023-05-10T07:05:35;2.17;;;0.95;;
71106;SDS011;58763;47.982;11.516;2023-05-10T07:08:01;4.13;;;0.90;;
71106;SDS011;58763;47.982;11.516;2023-05-10T07:10:26;2.08;;;0.70;;
71106;SDS011;58763;47.982;11.516;2023-05-10T07:12:52;1.95;;;0.90;;
71106;SDS011;58763;47.982;11.516;2023-05-10T07:15:17;4.53;;;0.80;;
71106;SDS011;58763;47.982;11.516;2023-05-10T07:17:44;2.03;;;0.80;;
71106;SDS011;58763;47.982;11.516;2023-05-10T07:20:10;1.23;;;0.60;;
71106;SDS011;58763;47.982;11.516;2023-05-10T07:22:36;1.60;;;0.80;;
71106;SDS011;58763;47.982;11.516;2023-05-10T07:25:01;2.05;;;0.80;;
71106;SDS011;58763;47.982;11.516;2023-05-10T07:27:27;3.00;;;1.10;;
71106;SDS011;58763;47.982;11.516;2023-05-10T07:29:52;3.10;;;0.85;;
71106;SDS011;58763;47.982;11.516;2023-05-10T07:32:18;1.45;;;0.50;;
71106;SDS011;58763;47.982;11.516;2023-05-10T07:34:44;2.13;;;0.80;;
71106;SDS011;58763;47.982;11.516;2023-05-10T07:37:09;2.00;;;0.80;;
71106;SDS011;58763;47.982;11.516;2023-05-10T07:39:35;1.70;;;0.85;;
71106;SDS011;58763;47.982;11.516;2023-05-10T07:42:00;2.60;;;0.85;;
71106;SDS011;58763;47.982;11.516;2023-05-10T07:44:25;4.25;;;1.08;;
71106;SDS011;58763;47.982;11.516;2023-05-10T07:46:51;2.03;;;0.80;;
71106;SDS011;58763;47.982;11.516;2023-05-10T07:49:17;4.85;;;0.90;;
71106;SDS011;58763;47.982;11.516;2023-05-10T07:51:42;3.08;;;1.00;;
71106;SDS011;58763;47.982;11.516;2023-05-10T07:54:09;1.75;;;0.77;;
71106;SDS011;58763;47.982;11.516;2023-05-10T07:56:35;2.92;;;0.85;;
71106;SDS011;58763;47.982;11.516;2023-05-10T07:59:01;4.13;;;0.95;;
71106;SDS011;58763;47.982;11.516;2023-05-10T08:01:32;1.45;;;0.60;;
71106;SDS011;58763;47.982;11.516;2023-05-10T08:03:59;3.50;;;0.70;;
71106;SDS011;58763;47.982;11.516;2023-05-10T08:06:25;2.78;;;0.68;;
71106;SDS011;58763;47.982;11.516;2023-05-10T08:08:52;2.33;;;0.80;;
71106;SDS011;58763;47.982;11.516;2023-05-10T08:11:21;2.17;;;0.80;;
71106;SDS011;58763;47.982;11.516;2023-05-10T08:13:47;2.67;;;0.82;;
71106;SDS011;58763;47.982;11.516;2023-05-10T08:16:15;1.40;;;0.70;;
71106;SDS011;58763;47.982;11.516;2023-05-10T08:18:41;3.10;;;0.90;;
71106;SDS011;58763;47.982;11.516;2023-05-10T08:21:06;1.98;;;0.90;;
71106;SDS011;58763;47.982;11.516;2023-05-10T08:23:32;2.38;;;1.00;;
71106;SDS011;58763;47.982;11.516;2023-05-10T08:25:59;2.28;;;0.80;;
71106;SDS011;58763;47.982;11.516;2023-05-10T08:28:25;1.67;;;0.70;;
71106;SDS011;58763;47.982;11.516;2023-05-10T08:30:50;1.98;;;0.75;;
71106;SDS011;58763;47.982;11.516;2023-05-10T08:33:17;2.60;;;0.60;;
71106;SDS011;58763;47.982;11.516;2023-05-10T08:35:43;2.47;;;0.95;;
71106;SDS011;58763;47.982;11.516;2023-05-10T08:38:09;3.05;;;0.65;;
71106;SDS011;58763;47.982;11.516;2023-05-10T08:40:36;1.80;;;0.80;;
71106;SDS011;58763;47.982;11.516;2023-05-10T08:43:06;3.03;;;1.00;;
71106;SDS011;58763;47.982;11.516;2023-05-10T08:45:38;2.33;;;0.80;;
71106;SDS011;58763;47.982;11.516;2023-05-10T08:48:06;3.30;;;0.70;;
71106;SDS011;58763;47.982;11.516;2023-05-10T08:50:36;1.33;;;0.60;;
71106;SDS011;58763;47.982;11.516;2023-05-10T08:53:06;1.30;;;0.68;;
71106;SDS011;58763;47.982;11.516;2023-05-10T08:55:34;2.25;;;0.70;;
71106;SDS011;58763;47.982;11.516;2023-05-10T08:58:05;1.10;;;0.50;;
71106;SDS011;58763;47.982;11.516;2023-05-10T09:00:31;4.85;;;0.60;;
71106;SDS011;58763;47.982;11.516;2023-05-10T09:02:57;1.40;;;0.63;;
71106;SDS011;58763;47.982;11.516;2023-05-10T09:05:24;0.98;;;0.50;;
71106;SDS011;58763;47.982;11.516;2023-05-10T09:07:50;1.95;;;0.57;;
71106;SDS011;58763;47.982;11.516;2023-05-10T09:10:16;1.45;;;0.60;;
71106;SDS011;58763;47.982;11.516;2023-05-10T09:12:43;1.52;;;0.55;;
71106;SDS011;58763;47.982;11.516;2023-05-10T09:15:10;1.42;;;0.50;;
71106;SDS011;58763;47.982;11.516;2023-05-10T09:17:39;1.88;;;0.70;;
71106;SDS011;58763;47.982;11.516;2023-05-10T09:20:06;3.15;;;0.73;;
71106;SDS011;58763;47.982;11.516;2023-05-10T09:22:32;2.50;;;0.90;;
71106;SDS011;58763;47.982;11.516;2023-05-10T09:25:08;1.63;;;0.80;;
71106;SDS011;58763;47.982;11.516;2023-05-10T09:27:38;3.00;;;0.75;;
71106;SDS011;58763;47.982;11.516;2023-05-10T09:30:07;1.48;;;0.70;;
71106;SDS011;58763;47.982;11.516;2023-05-10T09:32:45;1.92;;;0.77;;
71106;SDS011;58763;47.982;11.516;2023-05-10T09:35:13;1.63;;;0.80;;
71106;SDS011;58763;47.982;11.516;2023-05-10T09:37:40;2.50;;;0.75;;
71106;SDS011;58763;47.982;11.516;2023-05-10T09:40:07;3.80;;;0.63;;
71106;SDS011;58763;47.982;11.516;2023-05-10T09:45:27;1.40;;;0.60;;
71106;SDS011;58763;47.982;11.516;2023-05-10T09:47:53;6.68;;;1.83;;
71106;SDS011;58763;47.982;11.516;2023-05-10T09:50:19;4.20;;;1.35;;
71106;SDS011;58763;47.982;11.516;2023-05-10T09:52:46;3.00;;;0.77;;
71106;SDS011;58763;47.982;11.516;2023-05-10T09:55:22;4.70;;;1.58;;
71106;SDS011;58763;47.982;11.516;2023-05-10T09:57:48;1.88;;;0.60;;
71106;SDS011;58763;47.982;11.516;2023-05-10T10:00:22;4.82;;;1.60;;
71106;SDS011;58763;47.982;11.516;2023-05-10T10:02:53;6.63;;;1.45;;
71106;SDS011;58763;47.982;11.516;2023-05-10T10:05:27;2.30;;;1.00;;
71106;SDS011;58763;47.982;11.516;2023-05-10T10:07:53;1.40;;;0.45;;
71106;SDS011;58763;47.982;11.516;2023-05-10T10:10:19;2.55;;;0.77;;
71106;SDS011;58763;47.982;11.516;2023-05-10T10:12:44;1.77;;;0.60;;
71106;SDS011;58763;47.982;11.516;2023-05-10T10:15:10;3.03;;;0.60;;
71106;SDS011;58763;47.982;11.516;2023-05-10T10:17:36;1.90;;;0.60;;
71106;SDS011;58763;47.982;11.516;2023-05-10T10:20:03;3.05;;;1.10;;
71106;SDS011;58763;47.982;11.516;2023-05-10T10:22:29;2.92;;;0.82;;
71106;SDS011;58763;47.982;11.516;2023-05-10T10:24:55;2.10;;;0.80;;
71106;SDS011;58763;47.982;11.516;2023-05-10T10:27:24;1.67;;;0.70;;
71106;SDS011;58763;47.982;11.516;2023-05-10T10:30:02;2.45;;;0.60;;
71106;SDS011;58763;47.982;11.516;2023-05-10T10:37:44;5.15;;;0.82;;
71106;SDS011;58763;47.982;11.516;2023-05-10T10:40:22;0.70;;;0.30;;
71106;SDS011;58763;47.982;11.516;2023-05-10T10:42:51;1.33;;;0.52;;
71106;SDS011;58763;47.982;11.516;2023-05-10T10:45:18;2.00;;;0.60;;
71106;SDS011;58763;47.982;11.516;2023-05-10T10:47:44;1.48;;;0.60;;
71106;SDS011;58763;47.982;11.516;2023-05-10T10:50:10;3.63;;;0.50;;
71106;SDS011;58763;47.982;11.516;2023-05-10T10:52:42;2.47;;;0.70;;
71106;SDS011;58763;47.982;11.516;2023-05-10T11:02:46;2.95;;;0.73;;
71106;SDS011;58763;47.982;11.516;2023-05-10T11:05:33;2.25;;;0.70;;
71106;SDS011;58763;47.982;11.516;2023-05-10T11:08:17;2.28;;;0.60;;
71106;SDS011;58763;47.982;11.516;2023-05-10T11:10:49;1.70;;;0.70;;
71106;SDS011;58763;47.982;11.516;2023-05-10T11:13:17;2.97;;;0.70;;
71106;SDS011;58763;47.982;11.516;2023-05-10T11:16:12;1.50;;;0.70;;
71106;SDS011;58763;47.982;11.516;2023-05-10T11:18:58;1.50;;;0.50;;
71106;SDS011;58763;47.982;11.516;2023-05-10T11:21:27;1.13;;;0.30;;
71106;SDS011;58763;47.982;11.516;2023-05-10T11:23:57;2.30;;;0.40;;
71106;SDS011;58763;47.982;11.516;2023-05-10T11:26:24;1.75;;;0.50;;
71106;SDS011;58763;47.982;11.516;2023-05-10T11:28:52;0.60;;;0.40;;
71106;SDS011;58763;47.982;11.516;2023-05-10T11:31:22;1.95;;;0.57;;
71106;SDS011;58763;47.982;11.516;2023-05-10T11:33:49;4.57;;;0.52;;
71106;SDS011;58763;47.982;11.516;2023-05-10T11:36:34;1.42;;;0.40;;
71106;SDS011;58763;47.982;11.516;2023-05-10T11:39:01;1.05;;;0.40;;
71106;SDS011;58763;47.982;11.516;2023-05-10T11:41:28;2.00;;;0.50;;
71106;SDS011;58763;47.982;11.516;2023-05-10T11:43:54;1.20;;;0.50;;
71106;SDS011;58763;47.982;11.516;2023-05-10T11:46:21;3.80;;;0.50;;
71106;SDS011;58763;47.982;11.516;2023-05-10T11:48:52;2.03;;;0.65;;
71106;SDS011;58763;47.982;11.516;2023-05-10T11:51:23;1.50;;;0.60;;
71106;SDS011;58763;47.982;11.516;2023-05-10T11:53:54;2.13;;;0.52;;
71106;SDS011;58763;47.982;11.516;2023-05-10T11:56:20;1.38;;;0.60;;
71106;SDS011;58763;47.982;11.516;2023-05-10T11:58:52;1.75;;;0.40;;
71106;SDS011;58763;47.982;11.516;2023-05-10T12:01:19;2.55;;;0.68;;
71106;SDS011;58763;47.982;11.516;2023-05-10T12:03:46;1.70;;;0.50;;
71106;SDS011;58763;47.982;11.516;2023-05-10T12:06:12;1.42;;;0.57;;
71106;SDS011;58763;47.982;11.516;2023-05-10T12:08:43;1.95;;;0.63;;
71106;SDS011;58763;47.982;11.516;2023-05-10T12:11:10;2.67;;;0.70;;
71106;SDS011;58763;47.982;11.516;2023-05-10T12:13:38;3.72;;;0.70;;
71106;SDS011;58763;47.982;11.516;2023-05-10T12:18:50;2.40;;;1.00;;
71106;SDS011;58763;47.982;11.516;2023-05-10T12:21:16;3.22;;;0.90;;
71106;SDS011;58763;47.982;11.516;2023-05-10T12:23:44;2.53;;;1.00;;
71106;SDS011;58763;47.982;11.516;2023-05-10T12:26:11;2.13;;;0.90;;
71106;SDS011;58763;47.982;11.516;2023-05-10T12:28:37;3.20;;;1.10;;
71106;SDS011;58763;47.982;11.516;2023-05-10T12:31:03;1.92;;;0.98;;
71106;SDS011;58763;47.982;11.516;2023-05-10T12:33:36;2.67;;;0.90;;
71106;SDS011;58763;47.982;11.516;2023-05-10T12:36:04;4.82;;;1.35;;
71106;SDS011;58763;47.982;11.516;2023-05-10T12:38:34;3.28;;;1.27;;
71106;SDS011;58763;47.982;11.516;2023-05-10T12:41:05;2.40;;;1.08;;
71106;SDS011;58763;47.982;11.516;2023-05-10T12:43:32;2.58;;;1.30;;
71106;SDS011;58763;47.982;11.516;2023-05-10T12:45:58;2.13;;;1.13;;
71106;SDS011;58763;47.982;11.516;2023-05-10T12:48:30;2.78;;;1.02;;
71106;SDS011;58763;47.982;11.516;2023-05-10T12:50:56;2.35;;;1.00;;
71106;SDS011;58763;47.982;11.516;2023-05-10T12:53:22;1.77;;;0.82;;
71106;SDS011;58763;47.982;11.516;2023-05-10T12:55:47;1.58;;;0.70;;
71106;SDS011;58763;47.982;11.516;2023-05-10T12:58:13;1.48;;;0.70;;
71106;SDS011;58763;47.982;11.516;2023-05-10T13:00:39;2.03;;;1.00;;
71106;SDS011;58763;47.982;11.516;2023-05-10T13:03:04;2.15;;;0.70;;
71106;SDS011;58763;47.982;11.516;2023-05-10T13:05:33;1.05;;;0.40;;
71106;SDS011;58763;47.982;11.516;2023-05-10T13:07:59;2.88;;;0.60;;
71106;SDS011;58763;47.982;11.516;2023-05-10T13:10:24;1.50;;;0.50;;
71106;SDS011;58763;47.982;11.516;2023-05-10T13:12:50;1.98;;;0.50;;
71106;SDS011;58763;47.982;11.516;2023-05-10T13:15:16;1.15;;;0.50;;
71106;SDS011;58763;47.982;11.516;2023-05-10T13:17:42;1.10;;;0.50;;
71106;SDS011;58763;47.982;11.516;2023-05-10T13:20:08;2.28;;;0.47;;
71106;SDS011;58763;47.982;11.516;2023-05-10T13:22:36;1.25;;;0.50;;
71106;SDS011;58763;47.982;11.516;2023-05-10T13:25:02;1.50;;;0.60;;
71106;SDS011;58763;47.982;11.516;2023-05-10T13:27:28;1.23;;;0.50;;
71106;SDS011;58763;47.982;11.516;2023-05-10T13:29:54;2.17;;;0.73;;
71106;SDS011;58763;47.982;11.516;2023-05-10T13:32:20;1.27;;;0.63;;
71106;SDS011;58763;47.982;11.516;2023-05-10T13:34:45;1.75;;;0.70;;
71106;SDS011;58763;47.982;11.516;2023-05-10T13:37:11;1.52;;;0.50;;
71106;SDS011;58763;47.982;11.516;2023-05-10T13:39:36;1.13;;;0.40;;
71106;SDS011;58763;47.982;11.516;2023-05-10T13:42:02;3.65;;;0.50;;
71106;SDS011;58763;47.982;11.516;2023-05-10T13:44:28;0.73;;;0.40;;
71106;SDS011;58763;47.982;11.516;2023-05-10T13:46:54;1.58;;;0.60;;
71106;SDS011;58763;47.982;11.516;2023-05-10T13:49:20;0.95;;;0.45;;
71106;SDS011;58763;47.982;11.516;2023-05-10T13:51:47;1.00;;;0.40;;
71106;SDS011;58763;47.982;11.516;2023-05-10T13:54:12;1.30;;;0.43;;
71106;SDS011;58763;47.982;11.516;2023-05-10T13:56:38;2.13;;;0.50;;
71106;SDS011;58763;47.982;11.516;2023-05-10T13:59:04;2.00;;;0.50;;
71106;SDS011;58763;47.982;11.516;2023-05-10T14:01:30;1.48;;;0.52;;
71106;SDS011;58763;47.982;11.516;2023-05-10T14:03:56;0.95;;;0.40;;
71106;SDS011;58763;47.982;11.516;2023-05-10T14:06:22;1.45;;;0.50;;
71106;SDS011;58763;47.982;11.516;2023-05-10T14:08:47;2.38;;;0.50;;
71106;SDS011;58763;47.982;11.516;2023-05-10T14:11:12;1.10;;;0.40;;
71106;SDS011;58763;47.982;11.516;2023-05-10T14:13:39;2.35;;;0.60;;
71106;SDS011;58763;47.982;11.516;2023-05-10T14:16:05;1.40;;;0.63;;
71106;SDS011;58763;47.982;11.516;2023-05-10T14:18:30;1.92;;;0.68;;
71106;SDS011;58763;47.982;11.516;2023-05-10T14:20:56;1.67;;;0.70;;
71106;SDS011;58763;47.982;11.516;2023-05-10T14:23:22;2.42;;;0.60;;
71106;SDS011;58763;47.982;11.516;2023-05-10T14:25:53;1.48;;;0.60;;
71106;SDS011;58763;47.982;11.516;2023-05-10T14:28:19;1.42;;;0.40;;
71106;SDS011;58763;47.982;11.516;2023-05-10T14:30:46;1.00;;;0.45;;
71106;SDS011;58763;47.982;11.516;2023-05-10T14:33:12;1.00;;;0.40;;
71106;SDS011;58763;47.982;11.516;2023-05-10T14:35:38;0.95;;;0.30;;
71106;SDS011;58763;47.982;11.516;2023-05-10T14:38:04;1.33;;;0.57;;
71106;SDS011;58763;47.982;11.516;2023-05-10T14:40:29;1.48;;;0.50;;
71106;SDS011;58763;47.982;11.516;2023-05-10T14:42:55;2.28;;;0.47;;
71106;SDS011;58763;47.982;11.516;2023-05-10T14:45:21;0.90;;;0.40;;
71106;SDS011;58763;47.982;11.516;2023-05-10T14:47:48;0.73;;;0.40;;
71106;SDS011;58763;47.982;11.516;2023-05-10T14:50:14;2.15;;;0.43;;
71106;SDS011;58763;47.982;11.516;2023-05-10T14:52:41;1.10;;;0.50;;
71106;SDS011;58763;47.982;11.516;2023-05-10T14:55:07;1.77;;;0.60;;
71106;SDS011;58763;47.982;11.516;2023-05-10T14:57:33;1.55;;;0.55;;
71106;SDS011;58763;47.982;11.516;2023-05-10T14:59:58;1.35;;;0.60;;
71106;SDS011;58763;47.982;11.516;2023-05-10T15:02:24;3.15;;;0.50;;